createdAt,value
2023-03-02T00:02:07.082Z,-4.80
2023-03-02T00:04:41.255Z,-4.00
2023-03-02T00:07:13.002Z,-4.60
2023-03-02T00:09:45.464Z,-4.20
2023-03-02T00:12:16.196Z,-4.30
2023-03-02T00:14:45.362Z,-5.00
2023-03-02T00:17:14.782Z,-5.00
2023-03-02T00:19:45.206Z,-4.00
2023-03-02T00:22:14.151Z,-5.10
2023-03-02T00:24:44.446Z,-5.20
2023-03-02T00:27:13.425Z,-5.20
2023-03-02T00:29:42.747Z,-5.20
2023-03-02T00:32:18.463Z,-5.20
2023-03-02T00:34:47.316Z,-5.20
2023-03-02T00:37:16.042Z,-4.20
2023-03-02T00:39:47.270Z,-5.30
2023-03-02T00:42:16.579Z,-5.30
2023-03-02T00:44:45.494Z,-5.40
2023-03-02T00:47:15.117Z,-5.50
2023-03-02T00:49:49.326Z,-5.50
2023-03-02T00:52:18.671Z,-5.30
2023-03-02T00:54:49.435Z,-5.40
2023-03-02T00:57:18.784Z,-5.50
2023-03-02T00:59:47.787Z,-5.50
2023-03-02T01:02:27.149Z,-5.50
2023-03-02T01:04:56.213Z,-5.50
2023-03-02T01:07:26.554Z,-5.60
2023-03-02T01:09:57.124Z,-5.40
2023-03-02T01:12:25.845Z,-5.80
2023-03-02T01:14:55.947Z,-5.80
2023-03-02T01:17:25.592Z,-5.20
2023-03-02T01:19:54.898Z,-5.30
2023-03-02T01:22:24.714Z,-5.80
2023-03-02T01:24:54.053Z,-5.70
2023-03-02T01:27:24.791Z,-4.70
2023-03-02T01:29:53.664Z,-4.90
2023-03-02T01:32:22.645Z,-5.10
2023-03-02T01:34:51.858Z,-5.70
2023-03-02T01:37:21.102Z,-5.80
2023-03-02T01:39:49.989Z,-5.70
2023-03-02T01:42:19.564Z,-5.40
2023-03-02T01:44:51.759Z,-5.70
2023-03-02T01:47:24.396Z,-5.70
2023-03-02T01:50:08.465Z,-5.80
2023-03-02T01:52:41.299Z,-5.80
2023-03-02T01:55:14.345Z,-5.80
2023-03-02T01:57:47.878Z,-5.80
2023-03-02T02:00:21.931Z,-5.30
2023-03-02T02:02:52.601Z,-6.00
2023-03-02T02:05:28.517Z,-5.90
2023-03-02T02:07:57.616Z,-6.00
2023-03-02T02:10:27.115Z,-6.10
2023-03-02T02:12:56.149Z,-5.30
2023-03-02T02:15:26.567Z,-5.70
2023-03-02T02:17:56.250Z,-6.20
2023-03-02T02:20:32.012Z,-5.70
2023-03-02T02:23:14.598Z,-6.00
2023-03-02T02:25:49.582Z,-4.90
2023-03-02T02:28:23.429Z,-5.60
2023-03-02T02:31:06.241Z,-5.50
2023-03-02T02:33:36.902Z,-5.80
2023-03-02T02:36:10.137Z,-5.60
2023-03-02T02:38:42.000Z,-5.60
2023-03-02T02:41:17.652Z,-5.60
2023-03-02T02:43:49.271Z,-5.60
2023-03-02T02:46:18.904Z,-5.70
2023-03-02T02:48:48.120Z,-5.70
2023-03-02T02:51:23.211Z,-5.80
2023-03-02T02:54:00.127Z,-5.90
2023-03-02T02:56:36.206Z,-5.80
2023-03-02T02:59:15.129Z,-5.80
2023-03-02T03:01:45.186Z,-5.40
2023-03-02T03:04:17.139Z,-5.70
2023-03-02T03:06:53.277Z,-5.80
2023-03-02T03:09:22.412Z,-5.90
2023-03-02T03:11:53.655Z,-5.70
2023-03-02T03:14:29.856Z,-5.90
2023-03-02T03:16:59.250Z,-5.60
2023-03-02T03:19:31.621Z,-5.50
2023-03-02T03:22:03.236Z,-5.60
2023-03-02T03:24:37.347Z,-5.60
2023-03-02T03:27:09.257Z,-5.50
2023-03-02T03:29:45.621Z,-5.00
2023-03-02T03:32:16.025Z,-5.10
2023-03-02T03:34:45.952Z,-4.90
2023-03-02T03:37:22.821Z,-5.00
2023-03-02T03:39:52.498Z,-5.30
2023-03-02T03:42:24.047Z,-5.50
2023-03-02T03:44:55.718Z,-5.60
2023-03-02T03:47:25.778Z,-4.50
2023-03-02T03:49:54.666Z,-5.90
2023-03-02T03:52:30.927Z,-5.80
2023-03-02T03:55:10.683Z,-5.60
2023-03-02T03:57:40.601Z,-5.50
2023-03-02T04:00:15.295Z,-4.90
2023-03-02T04:02:51.048Z,-5.80
2023-03-02T04:05:21.419Z,-5.80
2023-03-02T04:07:53.650Z,-5.90
2023-03-02T04:10:23.626Z,-6.00
2023-03-02T04:12:54.681Z,-6.00
2023-03-02T04:15:26.014Z,-6.00
2023-03-02T04:17:55.466Z,-5.80
2023-03-02T04:20:26.992Z,-5.70
2023-03-02T04:22:58.921Z,-5.20
2023-03-02T04:25:29.940Z,-5.60
2023-03-02T04:28:10.266Z,-5.60
2023-03-02T04:30:42.848Z,-5.50
2023-03-02T04:33:11.610Z,-4.70
2023-03-02T04:35:40.560Z,-5.60
2023-03-02T04:38:09.470Z,-5.70
2023-03-02T04:40:38.575Z,-5.70
2023-03-02T04:43:08.574Z,-4.30
2023-03-02T04:45:37.540Z,-5.70
2023-03-02T04:48:09.094Z,-6.00
2023-03-02T04:50:38.819Z,-6.00
2023-03-02T04:53:07.854Z,-5.90
2023-03-02T04:55:36.904Z,-5.90
2023-03-02T04:58:06.048Z,-6.00
2023-03-02T05:00:35.977Z,-6.10
2023-03-02T05:03:07.368Z,-6.20
2023-03-02T05:05:36.211Z,-6.20
2023-03-02T05:08:05.588Z,-6.10
2023-03-02T05:10:35.075Z,-6.10
2023-03-02T05:13:06.036Z,-6.10
2023-03-02T05:15:37.400Z,-6.00
2023-03-02T05:18:10.174Z,-5.70
2023-03-02T05:20:39.108Z,-6.30
2023-03-02T05:23:11.208Z,-6.00
2023-03-02T05:25:41.053Z,-6.20
2023-03-02T05:28:09.869Z,-6.10
2023-03-02T05:30:39.129Z,-5.90
2023-03-02T05:33:09.892Z,-5.90
2023-03-02T05:35:39.703Z,-5.70
2023-03-02T05:38:08.922Z,-6.00
2023-03-02T05:40:38.154Z,-5.70
2023-03-02T05:43:08.050Z,-5.90
2023-03-02T05:45:39.524Z,-6.00
2023-03-02T05:48:12.166Z,-6.00
2023-03-02T05:50:41.258Z,-6.00
2023-03-02T05:53:10.473Z,-5.00
2023-03-02T05:55:39.543Z,-5.80
2023-03-02T05:58:10.401Z,-6.20
2023-03-02T06:00:39.636Z,-5.70
2023-03-02T06:03:10.718Z,-6.20
2023-03-02T06:05:40.697Z,-6.10
2023-03-02T06:08:10.211Z,-5.00
2023-03-02T06:10:38.890Z,-5.80
2023-03-02T06:13:08.107Z,-5.50
2023-03-02T06:15:38.129Z,-5.30
2023-03-02T06:18:07.202Z,-4.60
2023-03-02T06:20:38.250Z,-5.20
2023-03-02T06:23:07.384Z,-5.10
2023-03-02T06:25:37.737Z,-4.60
2023-03-02T06:28:10.123Z,-5.00
2023-03-02T06:30:39.128Z,-4.40
2023-03-02T06:33:07.678Z,-3.40
2023-03-02T06:35:38.517Z,-3.60
2023-03-02T06:38:07.217Z,-3.80
2023-03-02T06:40:36.148Z,-2.90
2023-03-02T06:43:04.986Z,-4.00
2023-03-02T06:45:36.795Z,-3.90
2023-03-02T06:48:06.775Z,-3.90
2023-03-02T06:50:37.020Z,-3.80
2023-03-02T06:53:07.629Z,-3.10
2023-03-02T06:55:36.898Z,-3.60
2023-03-02T06:58:07.832Z,-2.60
2023-03-02T07:00:37.162Z,-2.40
2023-03-02T07:03:06.310Z,-3.20
2023-03-02T07:05:36.286Z,-3.00
2023-03-02T07:08:07.049Z,-3.00
2023-03-02T07:10:36.026Z,-2.90
2023-03-02T07:13:06.385Z,-2.80
2023-03-02T07:15:36.587Z,-2.60
2023-03-02T07:18:05.916Z,-2.50
2023-03-02T07:20:34.911Z,-2.30
2023-03-02T07:23:03.979Z,-2.20
2023-03-02T07:25:34.537Z,-2.20
2023-03-02T07:28:04.149Z,-2.10
2023-03-02T07:30:33.570Z,-1.90
2023-03-02T07:33:02.926Z,-1.70
2023-03-02T07:35:32.391Z,-1.50
2023-03-02T07:38:01.015Z,-1.20
2023-03-02T07:40:30.145Z,-1.10
2023-03-02T07:43:01.749Z,-1.20
2023-03-02T07:45:30.347Z,-1.00
2023-03-02T07:47:58.916Z,-0.70
2023-03-02T07:50:28.096Z,-0.80
2023-03-02T07:52:58.601Z,-0.60
2023-03-02T07:55:29.542Z,-0.50
2023-03-02T07:57:59.895Z,-0.10
2023-03-02T08:00:28.694Z,0.10
2023-03-02T08:02:57.628Z,0.30
2023-03-02T08:05:26.984Z,0.60
2023-03-02T08:07:55.808Z,0.60
2023-03-02T08:10:24.797Z,0.70
2023-03-02T08:12:54.089Z,0.90
2023-03-02T08:15:25.746Z,0.80
2023-03-02T08:17:55.316Z,1.40
2023-03-02T08:20:27.841Z,1.70
2023-03-02T08:22:57.208Z,2.00
2023-03-02T08:25:26.029Z,3.00
2023-03-02T08:27:54.679Z,3.90
2023-03-02T08:30:25.055Z,5.70
2023-03-02T08:32:53.810Z,6.50
2023-03-02T08:35:23.126Z,7.60
2023-03-02T08:37:52.056Z,7.90
2023-03-02T08:40:20.718Z,7.50
2023-03-02T08:42:50.089Z,8.00
2023-03-02T08:45:21.156Z,8.80
2023-03-02T08:47:51.320Z,8.20
2023-03-02T08:50:20.034Z,8.20
2023-03-02T08:52:48.822Z,8.60
2023-03-02T08:55:18.750Z,10.20
2023-03-02T08:57:47.905Z,10.00
2023-03-02T09:00:18.872Z,10.40
2023-03-02T09:02:47.692Z,11.00
2023-03-02T09:05:17.929Z,11.00
2023-03-02T09:07:46.772Z,11.10
2023-03-02T09:10:15.632Z,11.60
2023-03-02T09:12:44.758Z,11.80
2023-03-02T09:15:14.044Z,12.30
2023-03-02T09:17:42.948Z,13.70
2023-03-02T09:20:14.752Z,13.60
2023-03-02T09:22:49.302Z,13.80
2023-03-02T09:25:19.368Z,13.70
2023-03-02T09:27:49.155Z,14.70
2023-03-02T09:30:18.407Z,15.00
2023-03-02T09:32:49.482Z,14.70
2023-03-02T09:35:19.094Z,14.50
2023-03-02T09:37:49.693Z,12.20
2023-03-02T09:40:23.165Z,13.60
2023-03-02T09:43:34.865Z,12.60
2023-03-02T09:46:19.432Z,13.00
2023-03-02T09:49:03.227Z,14.50
2023-03-02T09:51:39.896Z,15.20
2023-03-02T09:54:16.278Z,14.30
2023-03-02T09:56:49.778Z,17.40
2023-03-02T09:59:25.211Z,18.00
2023-03-02T10:02:01.488Z,18.60
2023-03-02T10:04:33.064Z,18.20
2023-03-02T10:07:14.698Z,17.90
2023-03-02T10:09:46.003Z,18.90
2023-03-02T10:12:38.961Z,18.20
2023-03-02T10:15:14.746Z,17.90
2023-03-02T10:17:56.438Z,19.70
2023-03-02T10:20:34.733Z,19.50
2023-03-02T10:23:18.759Z,20.00
2023-03-02T10:25:54.076Z,19.30
2023-03-02T10:28:25.919Z,19.30
2023-03-02T10:31:00.823Z,19.30
2023-03-02T10:33:34.258Z,19.30
2023-03-02T10:36:07.161Z,18.00
2023-03-02T10:38:41.173Z,19.00
2023-03-02T10:41:19.472Z,21.10
2023-03-02T10:43:53.591Z,20.40
2023-03-02T10:46:23.225Z,19.50
2023-03-02T10:48:56.911Z,21.50
2023-03-02T10:51:29.144Z,22.80
2023-03-02T10:54:09.637Z,19.40
2023-03-02T10:56:40.675Z,20.90
2023-03-02T10:59:40.103Z,20.80
2023-03-02T11:02:17.513Z,20.00
2023-03-02T11:04:49.669Z,20.20
2023-03-02T11:07:20.818Z,21.10
2023-03-02T11:10:02.823Z,19.80
2023-03-02T11:12:39.104Z,19.30
2023-03-02T11:15:28.658Z,22.00
2023-03-02T11:18:03.560Z,20.60
2023-03-02T11:20:37.366Z,23.60
2023-03-02T11:23:31.765Z,21.50
2023-03-02T11:26:03.985Z,21.60
2023-03-02T11:28:44.011Z,22.60
2023-03-02T11:31:21.942Z,19.80
2023-03-02T11:34:17.342Z,19.80
2023-03-02T11:36:58.527Z,22.80
2023-03-02T11:39:46.451Z,20.50
2023-03-02T11:42:26.904Z,22.00
2023-03-02T11:44:58.268Z,22.90
2023-03-02T11:47:27.770Z,19.20
2023-03-02T11:50:00.683Z,21.40
2023-03-02T11:52:34.232Z,19.60
2023-03-02T11:55:12.090Z,19.10
2023-03-02T11:57:48.903Z,17.20
2023-03-02T12:00:33.279Z,18.10
2023-03-02T12:03:04.907Z,20.00
2023-03-02T12:05:37.395Z,20.60
2023-03-02T12:08:08.353Z,22.80
2023-03-02T12:10:41.027Z,23.30
2023-03-02T12:13:17.170Z,23.40
2023-03-02T12:15:50.933Z,27.10
2023-03-02T12:18:56.253Z,23.40
2023-03-02T12:21:26.142Z,22.50
2023-03-02T12:24:01.384Z,23.60
2023-03-02T12:26:35.524Z,20.60
2023-03-02T12:29:09.684Z,20.90
2023-03-02T12:31:45.479Z,22.30
2023-03-02T12:34:37.184Z,22.90
2023-03-02T12:37:16.264Z,22.10
2023-03-02T12:40:18.962Z,23.20
2023-03-02T12:43:22.481Z,22.10
2023-03-02T12:46:27.735Z,22.60
2023-03-02T12:49:19.170Z,23.00
2023-03-02T12:51:59.915Z,25.70
2023-03-02T12:54:31.257Z,25.80
2023-03-02T12:57:09.509Z,23.90
2023-03-02T12:59:38.885Z,20.70
2023-03-02T13:02:17.199Z,24.70
2023-03-02T13:04:55.867Z,24.00
2023-03-02T13:07:28.212Z,22.60
2023-03-02T13:10:00.802Z,22.70
2023-03-02T13:12:30.945Z,22.80
2023-03-02T13:15:00.935Z,24.70
2023-03-02T13:17:32.122Z,23.10
2023-03-02T13:20:05.686Z,20.00
2023-03-02T13:22:35.796Z,21.60
2023-03-02T13:25:06.516Z,18.50
2023-03-02T13:27:36.127Z,19.60
2023-03-02T13:30:13.046Z,22.00
2023-03-02T13:32:44.109Z,21.20
2023-03-02T13:35:26.448Z,20.90
2023-03-02T13:38:01.793Z,20.60
2023-03-02T13:40:43.291Z,21.60
2023-03-02T13:43:39.151Z,21.00
2023-03-02T13:46:24.677Z,19.50
2023-03-02T13:49:14.282Z,19.00
2023-03-02T13:51:48.600Z,22.40
2023-03-02T13:54:22.787Z,21.80
2023-03-02T13:56:52.742Z,22.60
2023-03-02T13:59:23.880Z,20.40
2023-03-02T14:01:53.598Z,19.80
2023-03-02T14:04:24.523Z,22.30
2023-03-02T14:06:56.137Z,22.00
2023-03-02T14:09:27.317Z,19.90
2023-03-02T14:11:58.391Z,20.70
2023-03-02T14:14:31.128Z,20.40
2023-03-02T14:17:00.675Z,20.10
2023-03-02T14:19:29.654Z,19.30
2023-03-02T14:22:00.697Z,19.00
2023-03-02T14:24:30.067Z,19.30
2023-03-02T14:26:59.669Z,19.70
2023-03-02T14:29:31.943Z,19.00
2023-03-02T14:32:04.938Z,18.80
2023-03-02T14:34:36.115Z,20.70
2023-03-02T14:37:09.620Z,18.80
2023-03-02T14:39:41.187Z,19.50
2023-03-02T14:42:14.629Z,19.10
2023-03-02T14:44:45.011Z,20.60
2023-03-02T14:47:14.181Z,20.90
2023-03-02T14:49:43.185Z,19.90
2023-03-02T14:52:19.158Z,18.10
2023-03-02T14:54:52.535Z,17.90
2023-03-02T14:57:25.467Z,17.50
2023-03-02T14:59:54.548Z,17.40
2023-03-02T15:02:26.846Z,16.30
2023-03-02T15:04:57.877Z,15.90
2023-03-02T15:07:29.760Z,15.80
2023-03-02T15:09:59.391Z,16.30
2023-03-02T15:12:29.124Z,16.80
2023-03-02T15:14:58.142Z,16.10
2023-03-02T15:17:27.338Z,16.90
2023-03-02T15:19:56.645Z,16.50
2023-03-02T15:22:25.806Z,16.50
2023-03-02T15:24:56.446Z,15.70
2023-03-02T15:27:25.782Z,15.10
2023-03-02T15:29:56.794Z,14.10
2023-03-02T15:32:27.384Z,13.70
2023-03-02T15:35:04.345Z,13.40
2023-03-02T15:37:33.852Z,12.90
2023-03-02T15:40:04.358Z,12.60
2023-03-02T15:42:33.730Z,11.90
2023-03-02T15:45:03.165Z,11.70
2023-03-02T15:47:34.187Z,11.10
2023-03-02T15:50:03.458Z,11.20
2023-03-02T15:52:32.633Z,11.50
2023-03-02T15:55:01.662Z,11.80
2023-03-02T15:57:32.759Z,11.20
2023-03-02T16:00:04.299Z,11.00
2023-03-02T16:02:34.670Z,10.60
2023-03-02T16:05:03.996Z,9.90
2023-03-02T16:07:33.352Z,9.60
2023-03-02T16:10:02.517Z,9.20
2023-03-02T16:12:33.804Z,8.70
2023-03-02T16:15:02.697Z,8.00
2023-03-02T16:17:31.841Z,7.40
2023-03-02T16:20:01.219Z,7.20
2023-03-02T16:22:30.188Z,7.10
2023-03-02T16:24:58.973Z,7.00
2023-03-02T16:27:28.012Z,6.60
2023-03-02T16:29:58.999Z,6.30
2023-03-02T16:32:28.021Z,6.10
2023-03-02T16:34:57.404Z,6.00
2023-03-02T16:37:26.329Z,5.90
2023-03-02T16:39:55.386Z,5.80
2023-03-02T16:42:24.589Z,5.40
2023-03-02T16:44:53.826Z,5.30
2023-03-02T16:47:24.401Z,5.40
2023-03-02T16:49:54.124Z,5.30
2023-03-02T16:52:23.313Z,4.60
2023-03-02T16:54:52.231Z,4.10
2023-03-02T16:57:21.997Z,3.80
2023-03-02T16:59:51.070Z,3.60
2023-03-02T17:02:20.555Z,3.40
2023-03-02T17:04:51.516Z,3.30
2023-03-02T17:07:21.194Z,3.10
2023-03-02T17:09:50.453Z,3.00
2023-03-02T17:12:19.449Z,3.00
2023-03-02T17:14:48.724Z,2.80
2023-03-02T17:17:17.706Z,2.70
2023-03-02T17:19:46.758Z,2.60
2023-03-02T17:22:17.725Z,2.40
2023-03-02T17:24:47.191Z,2.40
2023-03-02T17:27:29.625Z,2.30
2023-03-02T17:29:58.631Z,2.20
2023-03-02T17:32:28.303Z,2.10
2023-03-02T17:34:57.300Z,2.00
2023-03-02T17:37:28.834Z,2.00
2023-03-02T17:39:58.159Z,1.90
2023-03-02T17:42:27.920Z,1.70
2023-03-02T17:44:56.865Z,1.70
2023-03-02T17:47:26.194Z,1.50
2023-03-02T17:49:56.916Z,1.40
2023-03-02T17:52:30.626Z,1.20
2023-03-02T17:55:03.046Z,1.10
2023-03-02T17:57:32.192Z,1.00
2023-03-02T18:00:01.051Z,1.00
2023-03-02T18:02:30.085Z,0.90
2023-03-02T18:05:01.100Z,0.80
2023-03-02T18:07:32.396Z,0.80
2023-03-02T18:10:01.728Z,0.60
2023-03-02T18:12:30.931Z,0.50
2023-03-02T18:15:00.315Z,0.50
2023-03-02T18:17:29.637Z,0.50
2023-03-02T18:19:59.133Z,0.50
2023-03-02T18:22:28.409Z,0.50
2023-03-02T18:24:58.811Z,0.40
2023-03-02T18:27:28.538Z,0.30
2023-03-02T18:29:57.957Z,0.20
2023-03-02T18:32:26.991Z,0.30
2023-03-02T18:34:56.414Z,0.20
2023-03-02T18:37:26.729Z,0.10
2023-03-02T18:39:55.918Z,0.00
2023-03-02T18:42:26.014Z,0.00
2023-03-02T18:44:55.750Z,-0.10
2023-03-02T18:47:25.351Z,-0.20
2023-03-02T18:49:54.458Z,-0.20
2023-03-02T18:52:23.791Z,0.00
2023-03-02T18:54:57.823Z,0.10
2023-03-02T18:57:29.292Z,0.30
2023-03-02T18:59:58.817Z,0.40
2023-03-02T19:02:29.192Z,0.50
2023-03-02T19:04:58.907Z,0.50
2023-03-02T19:07:28.241Z,0.50
2023-03-02T19:09:57.235Z,0.50
2023-03-02T19:12:28.210Z,0.40
2023-03-02T19:14:57.617Z,0.40
2023-03-02T19:17:26.965Z,0.40
2023-03-02T19:19:56.564Z,0.50
2023-03-02T19:22:25.809Z,0.40
2023-03-02T19:24:55.606Z,0.40
2023-03-02T19:27:24.769Z,0.40
2023-03-02T19:29:55.981Z,0.40
2023-03-02T19:32:25.409Z,0.30
2023-03-02T19:34:55.200Z,0.30
2023-03-02T19:37:24.874Z,0.20
2023-03-02T19:39:54.317Z,0.20
2023-03-02T19:42:23.786Z,0.20
2023-03-02T19:44:53.021Z,0.10
2023-03-02T19:47:23.872Z,0.10
2023-03-02T19:49:53.029Z,0.10
2023-03-02T19:52:22.042Z,0.10
2023-03-02T19:54:51.729Z,0.10
2023-03-02T19:57:21.960Z,0.10
2023-03-02T19:59:51.073Z,0.10
2023-03-02T20:02:20.402Z,0.00
2023-03-02T20:04:52.696Z,0.00
2023-03-02T20:07:22.233Z,0.00
2023-03-02T20:09:51.042Z,0.00
2023-03-02T20:12:20.668Z,0.10
2023-03-02T20:14:51.020Z,0.10
2023-03-02T20:17:21.468Z,0.10
2023-03-02T20:19:53.000Z,0.10
2023-03-02T20:22:22.969Z,0.10
2023-03-02T20:24:52.096Z,0.10
2023-03-02T20:27:21.657Z,0.10
2023-03-02T20:29:50.904Z,0.10
2023-03-02T20:32:20.542Z,0.00
2023-03-02T20:34:51.338Z,0.00
2023-03-02T20:37:23.294Z,0.00
2023-03-02T20:39:54.450Z,-0.10
2023-03-02T20:42:24.159Z,-0.10
2023-03-02T20:44:54.106Z,0.00
2023-03-02T20:47:23.792Z,0.00
2023-03-02T20:49:56.127Z,0.00
2023-03-02T20:52:25.834Z,0.10
2023-03-02T20:54:55.175Z,0.10
2023-03-02T20:57:24.956Z,0.10
2023-03-02T20:59:54.136Z,0.10
2023-03-02T21:02:24.168Z,0.10
2023-03-02T21:04:55.826Z,0.00
2023-03-02T21:07:25.694Z,0.00
2023-03-02T21:09:57.580Z,-0.10
2023-03-02T21:12:26.963Z,-0.10
2023-03-02T21:14:56.284Z,-0.10
2023-03-02T21:17:26.260Z,-0.10
2023-03-02T21:19:57.154Z,-0.10
2023-03-02T21:22:27.049Z,0.00
2023-03-02T21:24:56.626Z,-0.10
2023-03-02T21:27:25.568Z,-0.10
2023-03-02T21:29:54.913Z,-0.10
2023-03-02T21:32:24.908Z,-0.10
2023-03-02T21:34:54.644Z,0.00
2023-03-02T21:37:25.741Z,0.00
2023-03-02T21:39:55.164Z,0.00
2023-03-02T21:42:24.327Z,-0.10
2023-03-02T21:44:53.405Z,0.00
2023-03-02T21:47:22.464Z,0.00
2023-03-02T21:49:51.986Z,0.00
2023-03-02T21:52:21.165Z,0.00
2023-03-02T21:54:51.635Z,-0.10
2023-03-02T21:57:20.905Z,-0.10
2023-03-02T21:59:50.444Z,0.00
2023-03-02T22:02:19.663Z,-0.10
2023-03-02T22:04:49.183Z,-0.10
2023-03-02T22:07:18.596Z,-0.10
2023-03-02T22:09:49.009Z,0.00
2023-03-02T22:12:21.835Z,0.00
2023-03-02T22:14:53.715Z,0.10
2023-03-02T22:17:25.313Z,0.30
2023-03-02T22:19:55.485Z,0.30
2023-03-02T22:22:27.763Z,0.40
2023-03-02T22:24:57.117Z,0.50
2023-03-02T22:27:30.941Z,0.30
2023-03-02T22:30:04.082Z,0.00
2023-03-02T22:32:37.782Z,0.20
2023-03-02T22:35:22.649Z,0.30
2023-03-02T22:37:53.372Z,0.10
2023-03-02T22:40:30.904Z,0.00
2023-03-02T22:43:14.707Z,-0.10
2023-03-02T22:45:44.143Z,0.00
2023-03-02T22:48:16.315Z,0.10
2023-03-02T22:50:46.667Z,0.00
2023-03-02T22:53:28.091Z,-0.10
2023-03-02T22:56:00.404Z,0.00
2023-03-02T22:58:37.781Z,0.20
2023-03-02T23:01:20.135Z,0.20
2023-03-02T23:03:51.226Z,0.20
2023-03-02T23:06:29.376Z,0.30
2023-03-02T23:08:59.990Z,-0.20
2023-03-02T23:11:30.456Z,0.00
2023-03-02T23:14:04.056Z,0.10
2023-03-02T23:16:37.112Z,0.20
2023-03-02T23:19:07.388Z,0.10
2023-03-02T23:21:40.046Z,0.00
2023-03-02T23:24:10.145Z,-0.10
2023-03-02T23:26:39.280Z,-0.10
2023-03-02T23:29:09.684Z,0.30
2023-03-02T23:31:38.855Z,0.30
2023-03-02T23:34:08.301Z,0.20
2023-03-02T23:36:38.236Z,0.00
2023-03-02T23:39:07.780Z,-0.10
2023-03-02T23:41:36.921Z,-0.20
2023-03-02T23:44:06.698Z,-0.10
2023-03-02T23:46:37.583Z,-0.10
2023-03-02T23:49:06.869Z,-0.10
2023-03-02T23:51:36.684Z,-0.20
2023-03-02T23:54:06.181Z,-0.20
2023-03-02T23:56:35.425Z,-0.10
2023-03-02T23:59:04.391Z,-0.10
